CheckWX is a tool to help pilots better visualize weather data.  It is not intended as a substitute for an official pre-flight weather briefing.

15:18:35 UTC

EKOD METAR
Odense Airport
Odense, Denmark
Current

29 mins ago

EKOD 201450Z 06006KT 030V100 9999 FEW030 20/15 Q1007
Observed
May-20 @ 14:50 UTC
Wind
  • 060° at 6 KTS
Visibility
10,000+ meters
Flight Rules
VFR
Cloud Levels
  • Few at 3,000' AGL
Temperature
20°C / 68°F
Dewpoint
15°C / 59°F
Humidity
73%
Altimeter
29.73" Hg
Pressure
1006.92 hPa
Previous

1 hour ago

EKOD 201350Z 06006KT 020V100 9999 FEW030 21/14 Q1007
Observed
May-20 @ 13:50 UTC
Wind
  • 060° at 6 KTS
Visibility
10,000+ meters
Flight Rules
VFR
Cloud Levels
  • Few at 3,000' AGL
Temperature
21°C / 70°F
Dewpoint
14°C / 57°F
Humidity
64%
Altimeter
29.73" Hg
Pressure
1006.92 hPa
Previous

2 hours ago

EKOD 201250Z 08006KT 030V120 9999 FEW020 20/15 Q1008
Observed
May-20 @ 12:50 UTC
Wind
  • 080° at 6 KTS
Visibility
10,000+ meters
Flight Rules
VFR
Cloud Levels
  • Few at 2,000' AGL
Temperature
20°C / 68°F
Dewpoint
15°C / 59°F
Humidity
73%
Altimeter
29.76" Hg
Pressure
1007.92 hPa